sensor_id;sensor_type;location;lat;lon;timestamp;pressure;altitude;pressure_sealevel;temperature;humidity
10476;BME280;26166;48.264;11.436;2023-04-22T00:00:39;95687.78;;;11.60;63.54
10476;BME280;26166;48.264;11.436;2023-04-22T00:03:40;95689.75;;;11.58;64.13
10476;BME280;26166;48.264;11.436;2023-04-22T00:06:41;95691.78;;;11.56;64.07
10476;BME280;26166;48.264;11.436;2023-04-22T00:09:41;95679.59;;;11.55;64.20
10476;BME280;26166;48.264;11.436;2023-04-22T00:12:41;95690.97;;;11.55;63.84
10476;BME280;26166;48.264;11.436;2023-04-22T00:15:41;95690.97;;;11.55;63.98
10476;BME280;26166;48.264;11.436;2023-04-22T00:18:42;95683.88;;;11.56;63.90
10476;BME280;26166;48.264;11.436;2023-04-22T00:21:42;95688.50;;;11.54;63.81
10476;BME280;26166;48.264;11.436;2023-04-22T00:24:42;95676.34;;;11.53;63.83
10476;BME280;26166;48.264;11.436;2023-04-22T00:27:42;95678.78;;;11.54;63.92
10476;BME280;26166;48.264;11.436;2023-04-22T00:30:44;95677.16;;;11.53;64.05
10476;BME280;26166;48.264;11.436;2023-04-22T00:33:44;95683.25;;;11.54;64.14
10476;BME280;26166;48.264;11.436;2023-04-22T00:36:44;95676.34;;;11.53;63.94
10476;BME280;26166;48.264;11.436;2023-04-22T00:39:45;95671.91;;;11.53;64.04
10476;BME280;26166;48.264;11.436;2023-04-22T00:42:45;95676.97;;;11.55;63.58
10476;BME280;26166;48.264;11.436;2023-04-22T00:45:48;95669.47;;;11.52;63.72
10476;BME280;26166;48.264;11.436;2023-04-22T00:48:49;95673.09;;;11.51;63.88
10476;BME280;26166;48.264;11.436;2023-04-22T00:51:49;95665.03;;;11.52;63.80
10476;BME280;26166;48.264;11.436;2023-04-22T00:54:50;95670.66;;;11.49;63.99
10476;BME280;26166;48.264;11.436;2023-04-22T00:57:50;95662.16;;;11.47;63.81
10476;BME280;26166;48.264;11.436;2023-04-22T01:00:50;95664.94;;;11.46;64.24
10476;BME280;26166;48.264;11.436;2023-04-22T01:03:51;95659.31;;;11.49;63.84
10476;BME280;26166;48.264;11.436;2023-04-22T01:06:51;95663.31;;;11.45;64.08
10476;BME280;26166;48.264;11.436;2023-04-22T01:09:52;95667.56;;;11.46;64.26
10476;BME280;26166;48.264;11.436;2023-04-22T01:12:52;95663.78;;;11.48;64.25
10476;BME280;26166;48.264;11.436;2023-04-22T01:15:53;95660.50;;;11.46;63.80
10476;BME280;26166;48.264;11.436;2023-04-22T01:18:53;95661.34;;;11.47;64.34
10476;BME280;26166;48.264;11.436;2023-04-22T01:21:54;95669.22;;;11.47;63.72
10476;BME280;26166;48.264;11.436;2023-04-22T01:24:54;95670.19;;;11.46;63.93
10476;BME280;26166;48.264;11.436;2023-04-22T01:27:55;95667.41;;;11.47;64.00
10476;BME280;26166;48.264;11.436;2023-04-22T01:30:55;95669.38;;;11.45;63.77
10476;BME280;26166;48.264;11.436;2023-04-22T01:33:56;95672.84;;;11.46;63.82
10476;BME280;26166;48.264;11.436;2023-04-22T01:36:56;95673.84;;;11.45;63.77
10476;BME280;26166;48.264;11.436;2023-04-22T01:39:57;95661.69;;;11.44;64.23
10476;BME280;26166;48.264;11.436;2023-04-22T01:42:58;95665.13;;;11.44;63.69
10476;BME280;26166;48.264;11.436;2023-04-22T01:45:59;95666.31;;;11.42;63.77
10476;BME280;26166;48.264;11.436;2023-04-22T01:49:00;95673.59;;;11.40;63.86
10476;BME280;26166;48.264;11.436;2023-04-22T01:52:00;95676.22;;;11.40;64.07
10476;BME280;26166;48.264;11.436;2023-04-22T01:55:00;95690.63;;;11.44;63.64
10476;BME280;26166;48.264;11.436;2023-04-22T01:58:02;95685.56;;;11.42;64.02
10476;BME280;26166;48.264;11.436;2023-04-22T02:01:02;95685.38;;;11.44;63.92
10476;BME280;26166;48.264;11.436;2023-04-22T02:04:02;95681.13;;;11.43;63.67
10476;BME280;26166;48.264;11.436;2023-04-22T02:07:02;95685.72;;;11.41;63.65
10476;BME280;26166;48.264;11.436;2023-04-22T02:10:03;95689.16;;;11.41;63.93
10476;BME280;26166;48.264;11.436;2023-04-22T02:13:04;95689.38;;;11.40;64.28
10476;BME280;26166;48.264;11.436;2023-04-22T02:16:05;95681.47;;;11.40;63.80
10476;BME280;26166;48.264;11.436;2023-04-22T02:19:05;95682.47;;;11.39;63.61
10476;BME280;26166;48.264;11.436;2023-04-22T02:22:05;95679.03;;;11.38;63.82
10476;BME280;26166;48.264;11.436;2023-04-22T02:25:06;95675.75;;;11.36;64.15
10476;BME280;26166;48.264;11.436;2023-04-22T02:28:06;95673.94;;;11.36;64.10
10476;BME280;26166;48.264;11.436;2023-04-22T02:31:06;95674.16;;;11.35;63.76
10476;BME280;26166;48.264;11.436;2023-04-22T02:34:07;95674.16;;;11.35;63.98
10476;BME280;26166;48.264;11.436;2023-04-22T02:37:07;95678.75;;;11.33;63.95
10476;BME280;26166;48.264;11.436;2023-04-22T02:40:07;95673.34;;;11.34;63.67
10476;BME280;26166;48.264;11.436;2023-04-22T02:43:07;95670.06;;;11.32;63.93
10476;BME280;26166;48.264;11.436;2023-04-22T02:46:08;95671.72;;;11.33;63.93
10476;BME280;26166;48.264;11.436;2023-04-22T02:49:11;95667.25;;;11.34;63.57
10476;BME280;26166;48.264;11.436;2023-04-22T02:52:12;95671.50;;;11.35;63.79
10476;BME280;26166;48.264;11.436;2023-04-22T02:55:12;95669.69;;;11.35;63.60
10476;BME280;26166;48.264;11.436;2023-04-22T02:58:12;95669.69;;;11.35;63.66
10476;BME280;26166;48.264;11.436;2023-04-22T03:01:12;95669.69;;;11.35;63.47
10476;BME280;26166;48.264;11.436;2023-04-22T03:04:13;95670.50;;;11.36;63.82
10476;BME280;26166;48.264;11.436;2023-04-22T03:07:14;95668.69;;;11.36;63.43
10476;BME280;26166;48.264;11.436;2023-04-22T03:10:14;95669.69;;;11.35;63.45
10476;BME280;26166;48.264;11.436;2023-04-22T03:13:14;95664.44;;;11.35;63.50
10476;BME280;26166;48.264;11.436;2023-04-22T03:16:17;95656.91;;;11.32;63.18
10476;BME280;26166;48.264;11.436;2023-04-22T03:19:17;95662.00;;;11.34;63.28
10476;BME280;26166;48.264;11.436;2023-04-22T03:22:17;95653.31;;;11.33;63.63
10476;BME280;26166;48.264;11.436;2023-04-22T03:25:18;95660.34;;;11.33;63.50
10476;BME280;26166;48.264;11.436;2023-04-22T03:28:18;95667.44;;;11.32;63.54
10476;BME280;26166;48.264;11.436;2023-04-22T03:31:18;95673.69;;;11.31;63.22
10476;BME280;26166;48.264;11.436;2023-04-22T03:34:18;95675.72;;;11.29;63.56
10476;BME280;26166;48.264;11.436;2023-04-22T03:37:18;95672.06;;;11.30;63.24
10476;BME280;26166;48.264;11.436;2023-04-22T03:40:19;95670.06;;;11.32;63.43
10476;BME280;26166;48.264;11.436;2023-04-22T03:43:19;95676.13;;;11.33;62.93
10476;BME280;26166;48.264;11.436;2023-04-22T03:46:19;95673.34;;;11.34;62.62
10476;BME280;26166;48.264;11.436;2023-04-22T03:49:19;95672.06;;;11.30;62.87
10476;BME280;26166;48.264;11.436;2023-04-22T03:52:19;95674.50;;;11.32;62.83
10476;BME280;26166;48.264;11.436;2023-04-22T03:55:20;95677.78;;;11.34;63.16
10476;BME280;26166;48.264;11.436;2023-04-22T03:58:20;95675.31;;;11.32;63.21
10476;BME280;26166;48.264;11.436;2023-04-22T04:01:20;95674.06;;;11.28;63.00
10476;BME280;26166;48.264;11.436;2023-04-22T04:04:22;95679.31;;;11.28;62.84
10476;BME280;26166;48.264;11.436;2023-04-22T04:07:22;95681.78;;;11.30;62.53
10476;BME280;26166;48.264;11.436;2023-04-22T04:10:22;95677.69;;;11.27;62.21
10476;BME280;26166;48.264;11.436;2023-04-22T04:13:22;95685.31;;;11.22;62.69
10476;BME280;26166;48.264;11.436;2023-04-22T04:16:23;95682.88;;;11.21;62.29
10476;BME280;26166;48.264;11.436;2023-04-22T04:19:23;95677.44;;;11.22;62.12
10476;BME280;26166;48.264;11.436;2023-04-22T04:22:24;95673.19;;;11.21;62.12
10476;BME280;26166;48.264;11.436;2023-04-22T04:25:26;95671.09;;;11.17;61.96
10476;BME280;26166;48.264;11.436;2023-04-22T04:28:36;95671.81;;;11.10;61.97
10476;BME280;26166;48.264;11.436;2023-04-22T04:31:36;95664.94;;;11.09;62.10
10476;BME280;26166;48.264;11.436;2023-04-22T04:34:37;95667.03;;;11.14;62.15
10476;BME280;26166;48.264;11.436;2023-04-22T04:37:37;95679.59;;;11.19;62.01
10476;BME280;26166;48.264;11.436;2023-04-22T04:40:39;95681.22;;;11.20;61.96
10476;BME280;26166;48.264;11.436;2023-04-22T04:43:39;95682.06;;;11.20;61.99
10476;BME280;26166;48.264;11.436;2023-04-22T04:46:39;95679.06;;;11.23;62.01
10476;BME280;26166;48.264;11.436;2023-04-22T04:49:40;95684.31;;;11.23;62.04
10476;BME280;26166;48.264;11.436;2023-04-22T04:52:40;95682.34;;;11.25;61.90
10476;BME280;26166;48.264;11.436;2023-04-22T04:55:40;95680.06;;;11.22;62.13
10476;BME280;26166;48.264;11.436;2023-04-22T04:58:40;95685.31;;;11.22;62.47
10476;BME280;26166;48.264;11.436;2023-04-22T05:01:40;95682.06;;;11.20;62.06
10476;BME280;26166;48.264;11.436;2023-04-22T05:04:40;95682.06;;;11.20;62.21
10476;BME280;26166;48.264;11.436;2023-04-22T05:07:41;95683.06;;;11.19;62.55
10476;BME280;26166;48.264;11.436;2023-04-22T05:10:41;95685.69;;;11.19;62.75
10476;BME280;26166;48.264;11.436;2023-04-22T05:13:41;95674.34;;;11.19;62.33
10476;BME280;26166;48.264;11.436;2023-04-22T05:16:41;95674.34;;;11.19;62.55
10476;BME280;26166;48.264;11.436;2023-04-22T05:19:42;95670.09;;;11.18;62.58
10476;BME280;26166;48.264;11.436;2023-04-22T05:22:42;95677.38;;;11.16;62.82
10476;BME280;26166;48.264;11.436;2023-04-22T05:25:46;95677.53;;;11.14;62.76
10476;BME280;26166;48.264;11.436;2023-04-22T05:28:47;95668.63;;;11.15;63.04
10476;BME280;26166;48.264;11.436;2023-04-22T05:31:47;95682.78;;;11.14;63.18
10476;BME280;26166;48.264;11.436;2023-04-22T05:34:47;95681.16;;;11.13;63.29
10476;BME280;26166;48.264;11.436;2023-04-22T05:37:47;95692.94;;;11.17;63.27
10476;BME280;26166;48.264;11.436;2023-04-22T05:40:47;95699.47;;;11.21;62.92
10476;BME280;26166;48.264;11.436;2023-04-22T05:43:48;95692.41;;;11.22;62.98
10476;BME280;26166;48.264;11.436;2023-04-22T05:46:48;95702.72;;;11.23;63.32
10476;BME280;26166;48.264;11.436;2023-04-22T05:49:48;95706.53;;;11.21;62.95
10476;BME280;26166;48.264;11.436;2023-04-22T05:52:48;95710.78;;;11.22;63.04
10476;BME280;26166;48.264;11.436;2023-04-22T05:55:49;95712.22;;;11.24;63.15
10476;BME280;26166;48.264;11.436;2023-04-22T05:58:49;95719.13;;;11.25;63.06
10476;BME280;26166;48.264;11.436;2023-04-22T06:01:49;95722.56;;;11.26;63.23
10476;BME280;26166;48.264;11.436;2023-04-22T06:04:50;95723.03;;;11.29;62.96
10476;BME280;26166;48.264;11.436;2023-04-22T06:07:50;95727.47;;;11.29;63.18
10476;BME280;26166;48.264;11.436;2023-04-22T06:10:50;95724.66;;;11.30;62.88
10476;BME280;26166;48.264;11.436;2023-04-22T06:13:50;95730.72;;;11.31;62.81
10476;BME280;26166;48.264;11.436;2023-04-22T06:16:50;95728.72;;;11.33;63.03
10476;BME280;26166;48.264;11.436;2023-04-22T06:19:51;95721.66;;;11.33;62.92
10476;BME280;26166;48.264;11.436;2023-04-22T06:22:52;95718.19;;;11.33;63.27
10476;BME280;26166;48.264;11.436;2023-04-22T06:25:52;95717.22;;;11.34;62.95
10476;BME280;26166;48.264;11.436;2023-04-22T06:28:52;95718.84;;;11.35;62.97
10476;BME280;26166;48.264;11.436;2023-04-22T06:31:52;95735.88;;;11.39;62.63
10476;BME280;26166;48.264;11.436;2023-04-22T06:34:53;95733.06;;;11.41;62.57
10476;BME280;26166;48.264;11.436;2023-04-22T06:37:54;95728.44;;;11.43;62.59
10476;BME280;26166;48.264;11.436;2023-04-22T06:40:54;95730.06;;;11.44;62.43
10476;BME280;26166;48.264;11.436;2023-04-22T06:43:54;95726.63;;;11.43;62.76
10476;BME280;26166;48.264;11.436;2023-04-22T06:46:54;95728.06;;;11.46;62.42
10476;BME280;26166;48.264;11.436;2023-04-22T06:49:54;95728.25;;;11.44;62.75
10476;BME280;26166;48.264;11.436;2023-04-22T06:52:55;95728.88;;;11.46;62.75
10476;BME280;26166;48.264;11.436;2023-04-22T06:55:55;95728.06;;;11.46;62.60
10476;BME280;26166;48.264;11.436;2023-04-22T06:58:55;95722.63;;;11.47;62.55
10476;BME280;26166;48.264;11.436;2023-04-22T07:01:55;95723.25;;;11.49;62.46
10476;BME280;26166;48.264;11.436;2023-04-22T07:04:56;95718.81;;;11.50;62.70
10476;BME280;26166;48.264;11.436;2023-04-22T07:07:56;95720.63;;;11.49;62.30
10476;BME280;26166;48.264;11.436;2023-04-22T07:10:56;95713.53;;;11.50;62.47
10476;BME280;26166;48.264;11.436;2023-04-22T07:13:57;95725.69;;;11.51;62.25
10476;BME280;26166;48.264;11.436;2023-04-22T07:16:57;95726.53;;;11.51;62.69
10476;BME280;26166;48.264;11.436;2023-04-22T07:19:57;95721.06;;;11.53;62.03
10476;BME280;26166;48.264;11.436;2023-04-22T07:22:57;95720.06;;;11.54;62.16
10476;BME280;26166;48.264;11.436;2023-04-22T07:25:58;95715.63;;;11.54;62.05
10476;BME280;26166;48.264;11.436;2023-04-22T07:28:58;95711.16;;;11.55;62.13
10476;BME280;26166;48.264;11.436;2023-04-22T07:31:58;95700.66;;;11.55;61.95
10476;BME280;26166;48.264;11.436;2023-04-22T07:34:58;95710.34;;;11.54;62.14
10476;BME280;26166;48.264;11.436;2023-04-22T07:37:59;95704.94;;;11.56;62.27
10476;BME280;26166;48.264;11.436;2023-04-22T07:40:59;95712.00;;;11.55;62.08
10476;BME280;26166;48.264;11.436;2023-04-22T07:43:59;95707.56;;;11.56;62.35
10476;BME280;26166;48.264;11.436;2023-04-22T07:46:59;95707.97;;;11.59;62.18
10476;BME280;26166;48.264;11.436;2023-04-22T07:49:59;95708.81;;;11.60;62.05
10476;BME280;26166;48.264;11.436;2023-04-22T07:53:00;95701.91;;;11.59;62.31
10476;BME280;26166;48.264;11.436;2023-04-22T07:56:01;95711.44;;;11.60;62.23
10476;BME280;26166;48.264;11.436;2023-04-22T07:59:01;95697.09;;;11.62;62.11
10476;BME280;26166;48.264;11.436;2023-04-22T08:02:01;95703.16;;;11.63;61.96
10476;BME280;26166;48.264;11.436;2023-04-22T08:05:02;95708.41;;;11.63;61.88
10476;BME280;26166;48.264;11.436;2023-04-22T08:08:02;95717.31;;;11.62;61.90
10476;BME280;26166;48.264;11.436;2023-04-22T08:11:02;95710.44;;;11.61;61.75
10476;BME280;26166;48.264;11.436;2023-04-22T08:14:02;95706.19;;;11.60;62.20
10476;BME280;26166;48.264;11.436;2023-04-22T08:17:03;95712.44;;;11.59;61.68
10476;BME280;26166;48.264;11.436;2023-04-22T08:20:03;95703.91;;;11.57;62.33
10476;BME280;26166;48.264;11.436;2023-04-22T08:23:04;95710.81;;;11.58;61.95
10476;BME280;26166;48.264;11.436;2023-04-22T08:26:05;95711.06;;;11.63;61.94
10476;BME280;26166;48.264;11.436;2023-04-22T08:29:07;95709.31;;;11.70;61.86
10476;BME280;26166;48.264;11.436;2023-04-22T08:32:07;95706.94;;;11.75;61.66
10476;BME280;26166;48.264;11.436;2023-04-22T08:35:07;95712.66;;;11.79;61.61
10476;BME280;26166;48.264;11.436;2023-04-22T08:38:07;95717.19;;;11.85;61.17
10476;BME280;26166;48.264;11.436;2023-04-22T08:41:08;95706.28;;;11.88;61.27
10476;BME280;26166;48.264;11.436;2023-04-22T08:44:08;95715.25;;;11.94;61.00
10476;BME280;26166;48.264;11.436;2023-04-22T08:47:10;95715.31;;;12.00;60.90
10476;BME280;26166;48.264;11.436;2023-04-22T08:50:21;95706.03;;;12.04;60.70
10476;BME280;26166;48.264;11.436;2023-04-22T08:53:21;95711.56;;;12.09;60.43
10476;BME280;26166;48.264;11.436;2023-04-22T08:56:21;95710.75;;;12.09;60.72
10476;BME280;26166;48.264;11.436;2023-04-22T08:59:23;95706.84;;;12.05;60.60
10476;BME280;26166;48.264;11.436;2023-04-22T09:02:23;95699.94;;;12.04;60.97
10476;BME280;26166;48.264;11.436;2023-04-22T09:05:25;95699.94;;;12.04;60.97
10476;BME280;26166;48.264;11.436;2023-04-22T09:08:26;95695.88;;;12.01;60.79
10476;BME280;26166;48.264;11.436;2023-04-22T09:11:27;95695.06;;;12.01;61.15
10476;BME280;26166;48.264;11.436;2023-04-22T09:14:27;95693.44;;;12.00;61.22
10476;BME280;26166;48.264;11.436;2023-04-22T09:17:32;95692.59;;;11.99;61.09
10476;BME280;26166;48.264;11.436;2023-04-22T09:20:32;95696.88;;;12.00;60.91
10476;BME280;26166;48.264;11.436;2023-04-22T09:23:33;95679.97;;;12.09;61.10
10476;BME280;26166;48.264;11.436;2023-04-22T09:26:42;95685.50;;;12.21;60.72
10476;BME280;26166;48.264;11.436;2023-04-22T09:29:48;95686.63;;;12.33;60.08
10476;BME280;26166;48.264;11.436;2023-04-22T09:32:52;95682.66;;;12.44;59.68
10476;BME280;26166;48.264;11.436;2023-04-22T09:35:53;95680.88;;;12.51;59.39
10476;BME280;26166;48.264;11.436;2023-04-22T09:38:58;95683.94;;;12.55;59.27
10476;BME280;26166;48.264;11.436;2023-04-22T09:41:58;95671.19;;;12.58;59.35
10476;BME280;26166;48.264;11.436;2023-04-22T09:44:59;95678.91;;;12.60;59.17
10476;BME280;26166;48.264;11.436;2023-04-22T09:48:05;95677.88;;;12.61;59.26
10476;BME280;26166;48.264;11.436;2023-04-22T09:51:05;95671.44;;;12.63;59.24
10476;BME280;26166;48.264;11.436;2023-04-22T09:54:13;95676.50;;;12.65;59.35
10476;BME280;26166;48.264;11.436;2023-04-22T09:57:13;95673.25;;;12.63;59.26
10476;BME280;26166;48.264;11.436;2023-04-22T10:00:16;95671.81;;;12.60;59.35
10476;BME280;26166;48.264;11.436;2023-04-22T10:03:16;95668.34;;;12.60;59.58
10476;BME280;26166;48.264;11.436;2023-04-22T10:06:16;95665.13;;;12.58;59.60
10476;BME280;26166;48.264;11.436;2023-04-22T10:09:17;95661.47;;;12.59;59.62
10476;BME280;26166;48.264;11.436;2023-04-22T10:12:18;95663.09;;;12.60;59.54
10476;BME280;26166;48.264;11.436;2023-04-22T10:15:18;95651.75;;;12.59;59.76
10476;BME280;26166;48.264;11.436;2023-04-22T10:18:20;95655.19;;;12.60;59.98
10476;BME280;26166;48.264;11.436;2023-04-22T10:21:22;95654.81;;;12.63;59.66
10476;BME280;26166;48.264;11.436;2023-04-22T10:24:27;95647.28;;;12.60;59.72
10476;BME280;26166;48.264;11.436;2023-04-22T10:27:27;95655.38;;;12.58;59.75
10476;BME280;26166;48.264;11.436;2023-04-22T10:30:28;95651.31;;;12.56;59.99
10476;BME280;26166;48.264;11.436;2023-04-22T10:36:34;95642.81;;;12.54;59.89
10476;BME280;26166;48.264;11.436;2023-04-22T10:39:34;95637.53;;;12.54;59.92
10476;BME280;26166;48.264;11.436;2023-04-22T10:42:34;95641.34;;;12.51;60.08
10476;BME280;26166;48.264;11.436;2023-04-22T10:45:35;95638.28;;;12.48;60.01
10476;BME280;26166;48.264;11.436;2023-04-22T10:48:51;95633.81;;;12.48;60.38
10476;BME280;26166;48.264;11.436;2023-04-22T10:51:55;95629.56;;;12.47;60.07
10476;BME280;26166;48.264;11.436;2023-04-22T10:54:59;95623.25;;;12.42;59.97
10476;BME280;26166;48.264;11.436;2023-04-22T10:58:00;95615.13;;;12.36;60.33
10476;BME280;26166;48.264;11.436;2023-04-22T11:01:00;95621.78;;;12.32;60.38
10476;BME280;26166;48.264;11.436;2023-04-22T11:04:19;95621.34;;;12.29;60.20
10476;BME280;26166;48.264;11.436;2023-04-22T11:10:32;95609.81;;;12.30;60.33
10476;BME280;26166;48.264;11.436;2023-04-22T11:13:33;95615.88;;;12.30;60.55
10476;BME280;26166;48.264;11.436;2023-04-22T11:16:33;95611.63;;;12.29;60.33
10476;BME280;26166;48.264;11.436;2023-04-22T11:19:34;95619.75;;;12.28;60.72
10476;BME280;26166;48.264;11.436;2023-04-22T11:22:35;95616.66;;;12.24;60.61
10476;BME280;26166;48.264;11.436;2023-04-22T11:25:35;95617.69;;;12.23;60.77
10476;BME280;26166;48.264;11.436;2023-04-22T11:28:44;95613.44;;;12.22;60.44
10476;BME280;26166;48.264;11.436;2023-04-22T11:31:47;95617.84;;;12.22;60.55
10476;BME280;26166;48.264;11.436;2023-04-22T11:34:49;95618.69;;;12.22;60.86
10476;BME280;26166;48.264;11.436;2023-04-22T11:37:51;95623.31;;;12.20;60.31
10476;BME280;26166;48.264;11.436;2023-04-22T11:40:53;95619.06;;;12.19;60.49
10476;BME280;26166;48.264;11.436;2023-04-22T11:43:53;95620.91;;;12.19;60.22
10476;BME280;26166;48.264;11.436;2023-04-22T11:46:55;95617.00;;;12.15;60.40
10476;BME280;26166;48.264;11.436;2023-04-22T11:49:59;95617.00;;;12.15;60.38
10476;BME280;26166;48.264;11.436;2023-04-22T11:53:02;95609.94;;;12.15;60.19
10476;BME280;26166;48.264;11.436;2023-04-22T11:56:02;95608.31;;;12.14;60.62
10476;BME280;26166;48.264;11.436;2023-04-22T11:59:06;95606.03;;;12.11;60.21
10476;BME280;26166;48.264;11.436;2023-04-22T12:02:06;95603.03;;;12.14;60.13
10476;BME280;26166;48.264;11.436;2023-04-22T12:05:08;95600.41;;;12.14;60.10
10476;BME280;26166;48.264;11.436;2023-04-22T12:08:54;95603.03;;;12.14;60.28
10476;BME280;26166;48.264;11.436;2023-04-22T12:11:30;95592.50;;;12.14;59.88
10476;BME280;26166;48.264;11.436;2023-04-22T12:14:31;95598.78;;;12.13;60.14
10476;BME280;26166;48.264;11.436;2023-04-22T12:17:31;95598.78;;;12.13;59.66
10476;BME280;26166;48.264;11.436;2023-04-22T12:20:32;95598.78;;;12.13;59.66
10476;BME280;26166;48.264;11.436;2023-04-22T12:23:43;95586.59;;;12.12;59.65
10476;BME280;26166;48.264;11.436;2023-04-22T12:26:44;95596.16;;;12.13;59.62
10476;BME280;26166;48.264;11.436;2023-04-22T12:29:51;95586.59;;;12.12;59.58
10476;BME280;26166;48.264;11.436;2023-04-22T12:32:52;95586.59;;;12.12;59.38
10476;BME280;26166;48.264;11.436;2023-04-22T12:35:52;95586.59;;;12.12;59.65
10476;BME280;26166;48.264;11.436;2023-04-22T12:38:52;95590.88;;;12.13;59.54
10476;BME280;26166;48.264;11.436;2023-04-22T12:41:52;95587.25;;;12.14;59.36
10476;BME280;26166;48.264;11.436;2023-04-22T12:44:52;95593.31;;;12.15;59.20
10476;BME280;26166;48.264;11.436;2023-04-22T12:47:53;95589.66;;;12.16;59.56
10476;BME280;26166;48.264;11.436;2023-04-22T12:50:54;95581.97;;;12.14;59.47
10476;BME280;26166;48.264;11.436;2023-04-22T12:53:54;95581.34;;;12.12;59.63
10476;BME280;26166;48.264;11.436;2023-04-22T12:56:54;95583.00;;;12.13;59.53
10476;BME280;26166;48.264;11.436;2023-04-22T12:59:57;95569.19;;;12.11;59.62
10476;BME280;26166;48.264;11.436;2023-04-22T13:02:57;95569.81;;;12.13;59.49
10476;BME280;26166;48.264;11.436;2023-04-22T13:05:57;95567.19;;;12.13;59.32
10476;BME280;26166;48.264;11.436;2023-04-22T13:08:58;95566.19;;;12.14;59.47
10476;BME280;26166;48.264;11.436;2023-04-22T13:11:58;95561.09;;;12.12;59.60
10476;BME280;26166;48.264;11.436;2023-04-22T13:14:58;95562.31;;;12.10;59.22
10476;BME280;26166;48.264;11.436;2023-04-22T13:17:58;95562.47;;;12.08;59.49
10476;BME280;26166;48.264;11.436;2023-04-22T13:20:59;95562.09;;;12.11;59.58
10476;BME280;26166;48.264;11.436;2023-04-22T13:23:59;95552.38;;;12.12;59.29
10476;BME280;26166;48.264;11.436;2023-04-22T13:26:59;95548.13;;;12.11;59.58
10476;BME280;26166;48.264;11.436;2023-04-22T13:30:00;95537.59;;;12.11;59.60
10476;BME280;26166;48.264;11.436;2023-04-22T13:33:00;95542.88;;;12.11;59.48
10476;BME280;26166;48.264;11.436;2023-04-22T13:36:00;95546.75;;;12.15;59.20
10476;BME280;26166;48.264;11.436;2023-04-22T13:39:05;95539.66;;;12.16;59.43
10476;BME280;26166;48.264;11.436;2023-04-22T13:42:05;95532.56;;;12.16;59.32
10476;BME280;26166;48.264;11.436;2023-04-22T13:45:05;95531.97;;;12.14;59.05
10476;BME280;26166;48.264;11.436;2023-04-22T13:48:06;95528.09;;;12.10;58.97
10476;BME280;26166;48.264;11.436;2023-04-22T13:51:06;95517.56;;;12.10;59.09
10476;BME280;26166;48.264;11.436;2023-04-22T13:54:06;95527.44;;;12.08;58.76
10476;BME280;26166;48.264;11.436;2023-04-22T13:57:07;95518.94;;;12.06;59.05
10476;BME280;26166;48.264;11.436;2023-04-22T14:00:07;95512.88;;;12.05;58.96
10476;BME280;26166;48.264;11.436;2023-04-22T14:03:08;95516.31;;;12.06;59.29
10476;BME280;26166;48.264;11.436;2023-04-22T14:06:08;95511.03;;;12.06;59.25
10476;BME280;26166;48.264;11.436;2023-04-22T14:09:09;95504.16;;;12.05;58.99
10476;BME280;26166;48.264;11.436;2023-04-22T14:12:09;95506.97;;;12.03;58.96
10476;BME280;26166;48.264;11.436;2023-04-22T14:15:10;95501.91;;;12.02;58.76
10476;BME280;26166;48.264;11.436;2023-04-22T14:18:10;95504.53;;;12.02;59.05
10476;BME280;26166;48.264;11.436;2023-04-22T14:21:11;95500.91;;;12.03;59.28
10476;BME280;26166;48.264;11.436;2023-04-22T14:24:11;95502.34;;;12.05;59.44
10476;BME280;26166;48.264;11.436;2023-04-22T14:27:12;95502.78;;;12.09;59.39
10476;BME280;26166;48.264;11.436;2023-04-22T14:30:12;95510.75;;;12.22;59.21
10476;BME280;26166;48.264;11.436;2023-04-22T14:33:12;95502.72;;;12.44;58.33
10476;BME280;26166;48.264;11.436;2023-04-22T14:36:12;95490.06;;;12.67;57.20
10476;BME280;26166;48.264;11.436;2023-04-22T14:39:13;95496.75;;;12.83;56.47
10476;BME280;26166;48.264;11.436;2023-04-22T14:42:13;95493.78;;;12.93;56.71
10476;BME280;26166;48.264;11.436;2023-04-22T14:45:15;95490.31;;;12.99;56.57
10476;BME280;26166;48.264;11.436;2023-04-22T14:48:15;95494.19;;;13.03;56.66
10476;BME280;26166;48.264;11.436;2023-04-22T14:51:15;95492.78;;;13.07;56.71
10476;BME280;26166;48.264;11.436;2023-04-22T14:54:15;95490.31;;;13.05;56.71
10476;BME280;26166;48.264;11.436;2023-04-22T14:57:16;95493.81;;;13.06;56.50
10476;BME280;26166;48.264;11.436;2023-04-22T15:00:16;95486.88;;;13.05;56.40
10476;BME280;26166;48.264;11.436;2023-04-22T15:03:16;95483.00;;;13.01;56.66
10476;BME280;26166;48.264;11.436;2023-04-22T15:06:16;95491.34;;;12.98;56.72
10476;BME280;26166;48.264;11.436;2023-04-22T15:09:17;95497.00;;;12.95;57.18
10476;BME280;26166;48.264;11.436;2023-04-22T15:12:17;95483.03;;;12.94;57.20
10476;BME280;26166;48.264;11.436;2023-04-22T15:15:17;95487.66;;;12.92;57.18
10476;BME280;26166;48.264;11.436;2023-04-22T15:18:18;95486.84;;;12.92;57.14
10476;BME280;26166;48.264;11.436;2023-04-22T15:21:18;95484.44;;;12.97;57.07
10476;BME280;26166;48.264;11.436;2023-04-22T15:24:19;95484.06;;;13.06;56.96
10476;BME280;26166;48.264;11.436;2023-04-22T15:27:19;95478.38;;;13.16;56.60
10476;BME280;26166;48.264;11.436;2023-04-22T15:30:19;95483.88;;;13.21;56.41
10476;BME280;26166;48.264;11.436;2023-04-22T15:33:19;95483.69;;;13.29;56.24
10476;BME280;26166;48.264;11.436;2023-04-22T15:36:20;95487.56;;;13.33;56.10
10476;BME280;26166;48.264;11.436;2023-04-22T15:39:20;95484.94;;;13.33;56.25
10476;BME280;26166;48.264;11.436;2023-04-22T15:42:22;95488.16;;;13.35;56.26
10476;BME280;26166;48.264;11.436;2023-04-22T15:45:22;95487.56;;;13.33;56.21
10476;BME280;26166;48.264;11.436;2023-04-22T15:48:22;95493.03;;;13.32;56.33
10476;BME280;26166;48.264;11.436;2023-04-22T15:51:22;95493.22;;;13.30;56.45